Time;durP1;ratioP1;P1;durP2;ratioP2;P2;SDS_P1;SDS_P2;PMS_P1;PMS_P2;Temp;Humidity;BMP_temperature;BMP_pressure;BME280_temperature;BME280_humidity;BME280_pressure;Samples;Min_cycle;Max_cycle;Signal;HPM_P1;HPM_P2
2023/10/18 00:01:15;;;;;;;5.30;3.92;;;;;;;9.11;58.22;96788.34;4938120;28;20641;-80
2023/10/18 00:03:41;;;;;;;6.18;4.50;;;;;;;9.12;58.35;96791.75;4948631;28;20280;-81
2023/10/18 00:06:16;;;;;;;5.13;3.53;;;;;;;9.22;58.29;96802.25;4963427;28;20203;-81
2023/10/18 00:08:44;;;;;;;8.52;4.25;;;;;;;9.13;58.50;96788.13;4975831;28;20203;-81
2023/10/18 00:11:10;;;;;;;6.63;4.20;;;;;;;9.26;57.83;96786.97;4929614;28;20660;-80
2023/10/18 00:13:36;;;;;;;8.35;4.75;;;;;;;9.30;58.15;96795.81;4946096;28;20205;-81
2023/10/18 00:16:05;;;;;;;12.32;9.38;;;;;;;9.28;58.13;96777.88;4966784;28;20269;-81
2023/10/18 00:18:34;;;;;;;8.02;5.65;;;;;;;9.29;58.08;96783.88;4955351;28;20195;-80
2023/10/18 00:21:01;;;;;;;6.68;4.68;;;;;;;9.27;57.73;96785.91;4965748;28;20198;-80
2023/10/18 00:23:27;;;;;;;6.53;5.15;;;;;;;9.28;58.00;96780.47;4948414;28;20206;-81
2023/10/18 00:25:53;;;;;;;5.50;4.68;;;;;;;9.24;57.92;96765.63;4960196;28;20167;-80
2023/10/18 00:28:20;;;;;;;9.30;5.70;;;;;;;9.18;57.97;96762.19;4949340;28;20164;-80
2023/10/18 00:30:46;;;;;;;6.35;5.40;;;;;;;9.26;58.09;96763.56;4967456;28;20195;-81
2023/10/18 00:33:11;;;;;;;9.75;7.35;;;;;;;9.30;58.21;96765.41;4963492;28;20252;-80
2023/10/18 00:35:39;;;;;;;8.13;5.63;;;;;;;9.36;58.23;96759.25;4949302;28;20199;-81
2023/10/18 00:38:08;;;;;;;6.22;4.78;;;;;;;9.38;57.83;96761.59;4965246;28;20712;-80
2023/10/18 00:40:33;;;;;;;7.65;5.32;;;;;;;9.42;57.60;96752.28;4952375;28;20176;-80
2023/10/18 00:43:30;;;;;;;9.55;5.05;;;;;;;9.53;57.89;96761.75;4952033;28;20195;-80
2023/10/18 00:45:55;;;;;;;6.70;4.80;;;;;;;9.49;57.74;96750.28;4962665;28;20673;-81
2023/10/18 00:48:27;;;;;;;6.53;4.85;;;;;;;9.53;57.58;96748.75;4961478;28;20187;-81
2023/10/18 00:50:54;;;;;;;8.00;5.15;;;;;;;9.55;57.01;96753.69;4949372;28;20133;-80
2023/10/18 00:53:22;;;;;;;12.32;5.93;;;;;;;9.45;57.53;96745.81;4945796;28;20191;-79
2023/10/18 00:55:52;;;;;;;8.35;5.15;;;;;;;9.43;57.87;96740.88;4959698;28;20241;-81
2023/10/18 00:58:19;;;;;;;6.93;5.00;;;;;;;9.38;58.20;96731.19;4971063;28;20612;-80
2023/10/18 01:00:44;;;;;;;7.32;5.22;;;;;;;9.39;57.77;96732.00;4942274;28;20737;-80
2023/10/18 01:03:15;;;;;;;8.20;4.80;;;;;;;9.40;58.05;96733.56;4947951;28;20297;-80
2023/10/18 01:06:00;;;;;;;7.78;4.90;;;;;;;9.55;58.00;96731.09;4973024;28;20223;-80
2023/10/18 01:08:29;;;;;;;;;;;;;;;9.67;57.51;96733.50;4965317;28;20187;-81
2023/10/18 01:10:57;;;;;;;9.38;4.93;;;;;;;9.44;57.54;96724.25;4959703;28;20131;-80
2023/10/18 01:13:23;;;;;;;9.68;5.20;;;;;;;9.46;57.89;96719.59;4962010;28;20256;-82
2023/10/18 01:15:49;;;;;;;9.60;6.00;;;;;;;9.43;58.13;96725.28;4921895;28;20254;-79
2023/10/18 01:18:18;;;;;;;8.10;5.65;;;;;;;9.45;58.21;96723.19;4936329;28;20310;-81
2023/10/18 01:20:45;;;;;;;9.10;5.80;;;;;;;9.50;58.15;96727.66;4940542;28;20187;-80
2023/10/18 01:23:11;;;;;;;9.65;6.15;;;;;;;9.45;57.98;96718.00;4941271;28;20214;-80
2023/10/18 01:25:37;;;;;;;9.50;6.25;;;;;;;9.46;57.90;96726.56;4942751;28;20626;-80
2023/10/18 01:28:03;;;;;;;7.38;5.55;;;;;;;9.50;57.89;96718.03;4950369;28;20199;-80
2023/10/18 01:30:29;;;;;;;11.38;5.75;;;;;;;9.50;58.00;96717.28;4959125;28;20025;-83
2023/10/18 01:32:55;;;;;;;9.77;6.25;;;;;;;9.48;58.26;96714.16;4956036;28;20646;-81
2023/10/18 01:35:21;;;;;;;9.35;5.90;;;;;;;9.49;58.08;96711.28;4947336;28;20298;-81
2023/10/18 01:37:49;;;;;;;7.80;6.15;;;;;;;9.51;57.86;96714.44;4940092;28;20181;-82
2023/10/18 01:42:58;;;;;;;9.30;5.55;;;;;;;9.47;57.68;96702.94;4962267;28;20207;-82
2023/10/18 01:45:36;;;;;;;7.35;5.40;;;;;;;9.43;57.65;96680.31;4929528;28;20298;-82
2023/10/18 01:48:04;;;;;;;10.35;6.10;;;;;;;9.44;57.84;96695.66;4953317;28;20273;-82
2023/10/18 01:50:30;;;;;;;11.13;6.40;;;;;;;9.41;57.79;96698.75;4962779;28;20753;-82
2023/10/18 01:52:56;;;;;;;9.63;6.00;;;;;;;9.40;57.98;96707.56;4956892;28;20203;-81
2023/10/18 01:55:22;;;;;;;10.30;6.82;;;;;;;9.31;58.18;96698.69;4953916;28;20149;-82
2023/10/18 01:57:48;;;;;;;9.13;5.93;;;;;;;9.19;58.41;96685.84;4953901;28;20196;-82
2023/10/18 02:00:20;;;;;;;9.18;6.55;;;;;;;9.23;58.66;96689.50;4977677;28;20617;-81
2023/10/18 02:02:48;;;;;;;8.95;6.20;;;;;;;9.14;58.83;96691.78;4946238;28;20207;-82
2023/10/18 02:05:16;;;;;;;10.90;6.15;;;;;;;9.11;59.02;96681.09;4955508;28;20203;-83
2023/10/18 02:07:46;;;;;;;7.85;5.90;;;;;;;9.13;58.82;96681.63;4941454;28;20329;-82
2023/10/18 02:10:20;;;;;;;8.77;6.47;;;;;;;9.19;58.95;96686.63;4950746;28;20190;-81
2023/10/18 02:12:45;;;;;;;8.60;5.60;;;;;;;9.15;58.91;96680.38;4972186;28;20203;-82
2023/10/18 02:15:11;;;;;;;9.63;6.10;;;;;;;9.07;59.38;96673.00;4957235;28;20204;-80
2023/10/18 02:17:39;;;;;;;9.52;6.40;;;;;;;9.07;59.06;96667.81;4952196;28;20237;-80
2023/10/18 02:20:14;;;;;;;9.80;6.53;;;;;;;9.09;59.13;96673.53;4972855;28;20205;-82
2023/10/18 02:22:41;;;;;;;9.63;6.63;;;;;;;9.03;59.02;96682.34;4958548;28;20261;-82
2023/10/18 02:25:08;;;;;;;9.70;6.28;;;;;;;8.96;59.38;96676.53;4979745;28;20202;-80
2023/10/18 02:27:36;;;;;;;10.02;5.82;;;;;;;8.92;59.41;96665.09;4976757;28;20220;-82
2023/10/18 02:30:03;;;;;;;9.70;5.65;;;;;;;8.96;59.73;96653.97;4972213;28;20254;-81
2023/10/18 02:32:34;;;;;;;10.77;6.10;;;;;;;8.89;59.64;96660.38;4972962;28;20204;-81
2023/10/18 02:35:00;;;;;;;10.13;6.80;;;;;;;8.91;60.21;96668.69;4949720;28;20168;-80
2023/10/18 02:37:25;;;;;;;10.48;7.07;;;;;;;8.92;60.07;96659.91;4968945;28;20602;-79
2023/10/18 02:39:51;;;;;;;12.43;7.20;;;;;;;9.04;59.76;96655.31;4963154;28;20160;-83
2023/10/18 02:42:18;;;;;;;11.23;7.85;;;;;;;9.00;59.94;96641.28;4950290;28;20194;-84
2023/10/18 02:44:44;;;;;;;11.73;7.30;;;;;;;9.10;59.88;96656.94;4951742;28;20178;-82
2023/10/18 02:47:16;;;;;;;9.63;6.53;;;;;;;9.08;59.85;96653.00;4952736;28;20245;-81
2023/10/18 02:49:45;;;;;;;11.02;7.88;;;;;;;9.04;59.90;96649.34;4967393;28;20106;-80
2023/10/18 02:52:11;;;;;;;12.73;7.63;;;;;;;9.13;60.01;96653.06;4948985;28;20261;-81
2023/10/18 02:54:36;;;;;;;12.23;7.75;;;;;;;9.22;59.71;96638.59;4947008;28;20286;-82
2023/10/18 02:57:02;;;;;;;12.98;8.10;;;;;;;9.30;59.09;96634.75;4951516;28;20185;-81
2023/10/18 02:59:29;;;;;;;10.60;7.43;;;;;;;9.35;59.28;96634.78;4949572;28;20238;-80
2023/10/18 03:01:55;;;;;;;12.13;8.07;;;;;;;9.33;59.14;96642.81;4966914;28;20265;-81
2023/10/18 03:04:22;;;;;;;11.77;8.05;;;;;;;9.32;59.26;96632.69;4954794;28;20641;-80
2023/10/18 03:06:50;;;;;;;12.43;7.93;;;;;;;9.39;59.23;96641.06;4949093;28;20083;-80
2023/10/18 03:10:02;;;;;;;12.32;8.23;;;;;;;9.34;59.43;96630.63;4951405;28;20577;-80
2023/10/18 03:12:13;;;;;;;13.40;8.60;;;;;;;9.39;59.17;96646.25;4959336;28;20203;-80
2023/10/18 03:14:53;;;;;;;12.77;8.10;;;;;;;9.40;59.40;96634.81;4963464;28;20376;-80
2023/10/18 03:17:24;;;;;;;12.85;7.72;;;;;;;9.45;59.14;96631.47;4942630;28;20191;-80
2023/10/18 03:19:56;;;;;;;13.13;8.05;;;;;;;9.52;58.84;96630.22;4965930;28;20164;-81
2023/10/18 03:22:25;;;;;;;12.80;8.63;;;;;;;9.44;59.33;96625.50;4930903;28;20231;-79
2023/10/18 03:24:55;;;;;;;16.73;8.60;;;;;;;9.48;59.12;96616.16;4946731;28;20164;-79
2023/10/18 03:27:22;;;;;;;13.45;8.75;;;;;;;9.43;59.09;96616.13;4944478;28;20186;-79
2023/10/18 03:29:48;;;;;;;13.55;8.52;;;;;;;9.53;58.80;96611.00;4959931;28;20644;-81
2023/10/18 03:32:19;;;;;;;13.20;8.65;;;;;;;9.44;58.66;96602.13;4928159;28;20247;-80
2023/10/18 03:34:45;;;;;;;13.85;8.80;;;;;;;9.47;58.75;96606.03;4933631;28;20571;-82
2023/10/18 03:37:46;;;;;;;13.70;9.18;;;;;;;9.52;58.73;96606.06;4961693;28;20224;-82
2023/10/18 03:40:17;;;;;;;13.65;8.25;;;;;;;9.50;58.44;96602.94;4949788;28;20648;-82
2023/10/18 03:42:45;;;;;;;12.05;7.88;;;;;;;9.55;58.57;96611.53;4948223;28;20725;-81
2023/10/18 03:45:20;;;;;;;14.35;9.07;;;;;;;9.45;58.62;96600.28;4962429;28;20187;-80
2023/10/18 03:47:57;;;;;;;15.48;9.88;;;;;;;9.50;58.60;96603.69;4946017;28;20580;-80
2023/10/18 03:50:28;;;;;;;16.65;9.50;;;;;;;9.39;59.05;96602.09;4943266;28;20198;-80
2023/10/18 03:52:54;;;;;;;16.05;10.35;;;;;;;9.42;58.68;96598.97;4950482;28;20198;-81
2023/10/18 03:55:23;;;;;;;14.73;8.57;;;;;;;9.41;58.78;96604.41;4947640;28;20206;-81
2023/10/18 03:57:54;;;;;;;14.82;9.77;;;;;;;9.34;59.03;96600.22;4936169;28;20693;-80
2023/10/18 04:02:59;;;;;;;12.05;8.88;;;;;;;9.29;58.92;96579.41;4963822;28;20334;-80
2023/10/18 04:05:44;;;;;;;16.92;10.13;;;;;;;9.27;58.97;96599.66;4946117;28;20389;-79
2023/10/18 04:08:19;;;;;;;;;;;;;;;9.42;58.76;96595.59;4950274;28;20321;-81
2023/10/18 04:10:46;;;;;;;12.98;8.57;;;;;;;9.19;59.62;96587.16;4940562;28;20533;-80
2023/10/18 04:13:12;;;;;;;17.23;9.63;;;;;;;9.21;59.42;96576.50;4959636;28;20338;-80
2023/10/18 04:15:45;;;;;;;15.02;9.32;;;;;;;9.13;59.83;96570.75;4928650;28;20219;-81
2023/10/18 04:18:25;;;;;;;15.38;9.85;;;;;;;9.08;60.12;96578.50;4956236;28;20230;-80
2023/10/18 04:20:52;;;;;;;15.68;9.70;;;;;;;9.09;59.50;96572.25;4953805;28;20284;-81
2023/10/18 04:23:25;;;;;;;16.60;10.65;;;;;;;8.99;59.99;96559.22;4955578;28;20437;-81
2023/10/18 04:26:01;;;;;;;19.98;11.32;;;;;;;8.99;59.90;96547.00;4963661;28;20244;-81
2023/10/18 04:28:37;;;;;;;20.75;11.18;;;;;;;9.04;60.46;96556.66;4956251;28;20242;-80
2023/10/18 04:31:04;;;;;;;17.10;11.50;;;;;;;8.95;60.42;96550.38;4928931;28;20629;-80
2023/10/18 04:33:37;;;;;;;19.05;11.93;;;;;;;8.99;60.08;96538.44;4920459;28;20165;-81
2023/10/18 04:36:12;;;;;;;17.35;11.10;;;;;;;9.21;59.80;96540.16;4925634;28;20263;-82
2023/10/18 04:38:44;;;;;;;17.40;11.65;;;;;;;9.08;59.61;96539.56;4946771;28;20265;-82
2023/10/18 04:41:11;;;;;;;18.75;11.82;;;;;;;9.09;59.39;96530.72;4980572;28;20197;-81
2023/10/18 04:43:37;;;;;;;23.45;13.32;;;;;;;9.13;59.66;96542.19;4945315;28;20199;-81
2023/10/18 04:54:03;;;;;;;16.15;10.07;;;;;;;9.10;59.53;96542.69;4950985;28;20685;-80
2023/10/18 04:56:34;;;;;;;19.23;11.23;;;;;;;8.97;59.90;96522.31;4933034;28;20818;-80
2023/10/18 05:00:11;;;;;;;18.75;12.27;;;;;;;9.02;59.97;96521.59;4934665;28;20234;-82
2023/10/18 05:01:57;;;;;;;33.78;17.60;;;;;;;8.94;59.87;96513.22;4958313;28;20195;-81
2023/10/18 05:06:57;;;;;;;43.00;21.42;;;;;;;8.98;59.95;96508.31;4955694;28;20270;-82
2023/10/18 05:09:31;;;;;;;35.63;18.73;;;;;;;8.89;60.11;96489.81;4957460;28;20201;-82
2023/10/18 05:12:07;;;;;;;26.80;15.32;;;;;;;8.96;60.19;96490.41;4968149;28;20294;-82
2023/10/18 05:14:36;;;;;;;39.50;19.90;;;;;;;8.88;59.91;96490.09;4949677;28;20272;-81
2023/10/18 05:17:07;;;;;;;37.45;19.35;;;;;;;8.85;60.21;96482.78;4956324;28;20195;-80
2023/10/18 05:19:37;;;;;;;22.65;12.68;;;;;;;8.87;60.19;96478.13;4943193;28;20585;-82
2023/10/18 05:22:04;;;;;;;27.10;14.95;;;;;;;8.88;60.39;96482.31;4960820;28;20301;-82
2023/10/18 05:24:36;;;;;;;26.48;16.20;;;;;;;8.85;60.21;96477.59;4944364;28;20203;-82
2023/10/18 05:27:05;;;;;;;20.88;13.15;;;;;;;8.85;59.98;96480.19;4934944;28;20194;-82
2023/10/18 05:29:42;;;;;;;19.08;11.00;;;;;;;8.92;59.94;96483.34;4967826;28;20273;-81
2023/10/18 05:32:38;;;;;;;26.98;14.88;;;;;;;8.96;60.45;96495.59;4948576;28;20270;-81
2023/10/18 05:35:11;;;;;;;22.90;13.38;;;;;;;8.99;59.91;96491.69;4962072;28;20657;-81
2023/10/18 05:37:41;;;;;;;19.33;12.10;;;;;;;8.89;59.88;96484.63;4953006;28;20699;-81
2023/10/18 05:42:51;;;;;;;23.25;12.05;;;;;;;8.94;60.12;96479.47;4963381;28;20622;-79
2023/10/18 05:45:16;;;;;;;33.20;21.00;;;;;;;8.83;60.34;96480.44;4942942;28;20210;-81
2023/10/18 05:47:42;;;;;;;33.28;18.10;;;;;;;8.80;60.40;96473.16;4966036;28;20105;-80
2023/10/18 05:50:12;;;;;;;31.40;17.10;;;;;;;8.62;61.14;96466.56;4962855;28;20237;-80
2023/10/18 05:52:39;;;;;;;47.65;22.08;;;;;;;8.66;60.84;96464.25;4931143;28;20164;-81
2023/10/18 05:55:10;;;;;;;31.30;17.75;;;;;;;8.68;60.83;96470.72;4941658;28;20632;-81
2023/10/18 05:57:37;;;;;;;23.67;14.82;;;;;;;8.69;60.71;96472.31;4953065;28;20241;-80
2023/10/18 06:00:16;;;;;;;26.30;13.95;;;;;;;8.64;60.85;96456.69;4950531;28;20669;-81
2023/10/18 06:02:42;;;;;;;34.85;23.02;;;;;;;8.55;61.29;96458.19;4951626;28;20210;-81
2023/10/18 06:05:09;;;;;;;30.77;18.40;;;;;;;8.72;61.21;96473.59;4966506;28;20079;-81
2023/10/18 06:07:35;;;;;;;30.13;18.30;;;;;;;8.76;60.83;96465.09;4962425;28;20202;-81
2023/10/18 06:10:09;;;;;;;25.70;14.68;;;;;;;8.71;61.22;96462.47;4964861;28;20313;-80
2023/10/18 06:12:40;;;;;;;24.45;16.08;;;;;;;8.71;61.35;96457.25;4966729;28;20093;-81
2023/10/18 06:15:12;;;;;;;31.02;18.38;;;;;;;8.83;61.10;96469.28;4962058;28;20214;-80
2023/10/18 06:17:47;;;;;;;24.10;13.35;;;;;;;8.89;60.59;96465.69;4962001;28;20682;-82
2023/10/18 06:20:32;;;;;;;19.63;12.48;;;;;;;9.04;60.48;96477.97;4957045;28;20245;-82
2023/10/18 06:23:08;;;;;;;20.02;11.48;;;;;;;9.10;60.55;96482.94;4936879;28;20289;-81
2023/10/18 06:28:31;;;;;;;20.63;10.68;;;;;;;9.07;60.62;96465.25;4925461;28;20277;-81
2023/10/18 06:30:57;;;;;;;17.92;10.95;;;;;;;9.16;60.37;96478.56;4940856;28;20272;-81
2023/10/18 06:33:23;;;;;;;20.50;11.77;;;;;;;9.17;60.39;96480.13;4955759;28;20203;-81
2023/10/18 06:35:52;;;;;;;19.23;11.82;;;;;;;9.18;60.58;96479.06;4959919;28;20193;-81
2023/10/18 06:38:22;;;;;;;18.75;12.13;;;;;;;9.28;60.55;96471.34;4959091;28;20256;-81
2023/10/18 06:43:25;;;;;;;17.65;11.25;;;;;;;9.14;60.71;96480.63;4952705;28;20200;-81
2023/10/18 06:45:53;;;;;;;18.85;10.90;;;;;;;9.13;60.57;96469.47;4943965;28;20197;-81
2023/10/18 06:48:19;;;;;;;17.65;11.02;;;;;;;9.04;60.64;96465.75;4947891;28;20218;-80
2023/10/18 06:50:48;;;;;;;20.30;11.93;;;;;;;9.12;60.83;96457.50;4957184;28;20185;-81
2023/10/18 06:53:15;;;;;;;22.10;14.07;;;;;;;9.15;61.28;96466.59;4959015;28;20186;-80
2023/10/18 07:00:43;;;;;;;19.15;11.57;;;;;;;9.34;61.08;96456.56;4945057;28;20338;-81
2023/10/18 07:03:16;;;;;;;18.85;11.65;;;;;;;9.57;60.68;96458.72;4962977;28;20295;-82
2023/10/18 07:05:54;;;;;;;19.02;11.00;;;;;;;9.59;60.09;96449.91;4966632;28;20720;-81
2023/10/18 07:08:20;;;;;;;19.10;10.88;;;;;;;9.58;60.43;96451.72;4965542;28;20336;-81
2023/10/18 07:10:56;;;;;;;19.00;13.35;;;;;;;9.66;60.07;96460.81;4950329;28;20817;-81
2023/10/18 07:13:32;;;;;;;19.67;11.80;;;;;;;9.78;60.26;96456.19;4949434;28;20251;-81
2023/10/18 07:16:15;;;;;;;19.70;11.27;;;;;;;9.96;59.90;96451.56;4951286;28;20292;-81
2023/10/18 07:18:44;;;;;;;19.30;12.50;;;;;;;10.01;59.64;96459.38;4945402;28;20188;-81
2023/10/18 07:21:09;;;;;;;18.45;11.43;;;;;;;10.16;59.24;96455.97;4964802;28;20654;-81
2023/10/18 07:23:40;;;;;;;16.15;11.07;;;;;;;10.09;59.37;96448.44;4965441;28;20210;-80
2023/10/18 07:26:16;;;;;;;18.38;11.20;;;;;;;10.28;59.08;96454.72;4945540;28;20183;-81
2023/10/18 07:28:43;;;;;;;17.20;11.70;;;;;;;10.25;59.57;96447.41;4966375;28;20555;-79
2023/10/18 07:31:10;;;;;;;21.20;12.15;;;;;;;10.24;59.37;96429.47;4956810;28;20237;-81
2023/10/18 07:33:41;;;;;;;18.90;12.02;;;;;;;10.53;59.28;96428.97;4965106;28;20349;-80
2023/10/18 07:36:08;;;;;;;19.13;11.90;;;;;;;10.60;58.62;96427.63;4934551;28;20192;-80
2023/10/18 07:38:37;;;;;;;17.75;11.20;;;;;;;10.71;58.17;96422.41;4955879;28;20668;-81
2023/10/18 07:41:04;;;;;;;17.02;10.82;;;;;;;10.82;58.04;96416.94;4972762;28;20303;-83
2023/10/18 07:43:32;;;;;;;17.63;10.80;;;;;;;10.88;57.46;96412.47;4939974;28;20272;-80
2023/10/18 07:45:58;;;;;;;15.05;10.50;;;;;;;10.97;57.34;96418.72;4952824;28;20178;-81
2023/10/18 07:48:27;;;;;;;14.85;10.50;;;;;;;11.14;57.00;96404.59;4933314;28;20242;-84
2023/10/18 07:50:54;;;;;;;17.15;11.30;;;;;;;11.21;56.62;96407.72;4966713;28;20316;-82
2023/10/18 07:53:20;;;;;;;16.75;10.68;;;;;;;11.35;57.01;96400.84;4953014;28;20109;-82
2023/10/18 07:55:58;;;;;;;14.10;9.15;;;;;;;11.55;56.42;96409.63;4968187;23;20211;-82
2023/10/18 07:58:32;;;;;;;15.10;9.88;;;;;;;11.59;55.71;96402.84;4916250;28;20269;-81
2023/10/18 08:03:27;;;;;;;13.52;9.48;;;;;;;11.75;54.86;96400.91;4951727;28;20183;-81
2023/10/18 08:05:55;;;;;;;13.52;8.80;;;;;;;11.92;54.64;96398.72;4916704;28;20286;-81
2023/10/18 08:08:24;;;;;;;13.57;9.63;;;;;;;12.09;53.83;96398.34;4928863;28;20319;-82
2023/10/18 08:10:49;;;;;;;14.45;9.55;;;;;;;12.21;53.90;96400.59;4934323;28;20165;-82
2023/10/18 08:13:16;;;;;;;15.02;8.70;;;;;;;12.42;53.54;96405.66;4930651;28;20233;-82
2023/10/18 08:15:50;;;;;;;14.98;9.95;;;;;;;12.44;53.13;96401.75;4948609;28;20322;-83
2023/10/18 08:18:16;;;;;;;16.15;10.00;;;;;;;12.52;53.13;96395.13;4932508;28;20048;-82
2023/10/18 08:23:34;;;;;;;11.63;8.52;;;;;;;12.68;52.40;96393.13;4951173;28;20260;-82
2023/10/18 08:26:05;;;;;;;11.70;8.02;;;;;;;12.64;52.61;96386.91;4942511;28;20081;-84
2023/10/18 08:28:38;;;;;;;11.65;8.32;;;;;;;12.82;52.48;96383.59;4930365;28;20200;-82
2023/10/18 08:33:45;;;;;;;10.85;8.15;;;;;;;12.87;51.90;96388.00;4929792;28;20622;-82
2023/10/18 08:36:13;;;;;;;10.13;7.35;;;;;;;12.95;51.72;96382.13;4927815;28;20166;-82
2023/10/18 08:38:41;;;;;;;11.52;7.72;;;;;;;13.04;52.25;96379.69;4927705;28;20290;-83
2023/10/18 08:41:16;;;;;;;11.52;7.63;;;;;;;13.16;51.07;96379.28;4913397;28;20708;-83
2023/10/18 08:43:59;;;;;;;9.80;7.63;;;;;;;13.50;51.66;96376.53;4931492;28;20653;-84
2023/10/18 08:46:26;;;;;;;10.13;7.40;;;;;;;13.39;50.66;96368.06;4913859;28;20291;-81
2023/10/18 08:48:54;;;;;;;9.45;7.10;;;;;;;13.59;50.46;96364.38;4913830;28;20486;-81
2023/10/18 08:51:23;;;;;;;9.98;7.93;;;;;;;13.62;50.35;96355.97;4926904;28;20279;-81
2023/10/18 08:53:50;;;;;;;10.13;7.50;;;;;;;13.74;50.59;96352.13;4945792;28;20176;-81
2023/10/18 08:56:19;;;;;;;9.70;7.45;;;;;;;13.65;49.69;96331.84;4942084;28;20199;-80
2023/10/18 08:58:47;;;;;;;8.63;6.72;;;;;;;13.80;49.91;96330.84;4945198;28;20280;-80
2023/10/18 09:01:14;;;;;;;10.02;7.00;;;;;;;13.81;49.15;96349.94;4927335;28;20622;-81
2023/10/18 09:03:39;;;;;;;9.25;6.45;;;;;;;14.00;49.15;96348.06;4925913;28;20198;-82
2023/10/18 09:06:05;;;;;;;9.20;6.50;;;;;;;14.00;49.48;96332.38;4921888;28;20682;-83
2023/10/18 09:08:45;;;;;;;11.10;6.93;;;;;;;14.27;48.72;96346.56;4942003;28;20286;-81
2023/10/18 09:11:21;;;;;;;9.93;6.20;;;;;;;14.32;48.63;96335.25;4944476;28;20339;-80
2023/10/18 09:14:08;;;;;;;8.18;5.80;;;;;;;14.47;48.46;96344.69;4945170;28;20667;-82
2023/10/18 09:16:40;;;;;;;7.47;6.00;;;;;;;14.51;48.14;96350.88;4930591;28;20226;-80
2023/10/18 09:19:07;;;;;;;8.88;6.35;;;;;;;14.37;47.25;96343.78;4926753;28;20326;-79
2023/10/18 09:21:56;;;;;;;7.45;5.53;;;;;;;14.35;47.14;96348.53;4941067;28;20836;-82
2023/10/18 09:24:30;;;;;;;8.40;6.15;;;;;;;14.56;47.64;96353.41;4944303;28;20365;-82
2023/10/18 09:26:57;;;;;;;7.15;5.40;;;;;;;14.66;47.58;96350.63;4925653;28;20278;-80
2023/10/18 09:29:26;;;;;;;8.60;5.53;;;;;;;14.70;47.02;96341.16;4927821;28;20267;-81
2023/10/18 09:31:54;;;;;;;9.68;5.32;;;;;;;14.64;47.27;96326.59;4926998;28;20347;-80
2023/10/18 09:34:20;;;;;;;7.30;5.40;;;;;;;14.59;46.58;96313.56;4942100;28;20630;-81
2023/10/18 09:36:56;;;;;;;8.43;5.47;;;;;;;14.81;46.95;96310.28;4926765;28;20192;-80
2023/10/18 09:39:21;;;;;;;6.90;4.93;;;;;;;15.00;46.70;96317.25;4930999;28;20326;-82
2023/10/18 09:41:47;;;;;;;6.80;5.22;;;;;;;15.05;47.21;96312.66;4925667;28;20091;-82
2023/10/18 09:44:13;;;;;;;6.82;4.85;;;;;;;15.34;46.96;96322.81;4911521;28;20268;-79
2023/10/18 09:46:39;;;;;;;6.38;4.80;;;;;;;15.49;45.41;96302.53;4932781;28;20177;-81
2023/10/18 09:49:09;;;;;;;5.80;4.75;;;;;;;15.73;45.59;96299.66;4930295;28;20246;-83
2023/10/18 09:51:40;;;;;;;7.15;4.97;;;;;;;15.73;44.89;96291.78;4911332;28;20252;-81
2023/10/18 09:54:07;;;;;;;6.03;4.93;;;;;;;15.95;44.50;96290.22;4911078;28;20233;-82
2023/10/18 09:56:37;;;;;;;5.88;4.55;;;;;;;16.06;44.67;96291.53;4866950;28;1310499;-82
2023/10/18 09:59:11;;;;;;;5.75;4.82;;;;;;;16.09;44.79;96286.44;4915853;28;20253;-80
2023/10/18 10:04:13;;;;;;;7.32;5.15;;;;;;;16.13;43.16;96293.72;4931822;28;20289;-80
2023/10/18 10:06:45;;;;;;;7.82;5.07;;;;;;;16.03;43.67;96289.50;4947381;28;20204;-80
2023/10/18 10:11:43;;;;;;;6.93;5.18;;;;;;;15.71;44.67;96273.69;4947583;28;20742;-80
2023/10/18 10:14:09;;;;;;;5.82;4.45;;;;;;;15.65;44.58;96268.88;4947462;28;20595;-82
2023/10/18 10:16:36;;;;;;;7.43;5.20;;;;;;;15.68;45.08;96276.91;4931502;28;20277;-81
2023/10/18 10:19:11;;;;;;;4.97;4.30;;;;;;;15.67;44.46;96271.97;4948067;28;20297;-81
2023/10/18 10:21:37;;;;;;;5.70;4.18;;;;;;;15.49;44.79;96271.84;4947147;28;20107;-80
2023/10/18 10:24:29;;;;;;;4.55;4.10;;;;;;;15.68;44.86;96271.66;4912447;28;20279;-82
2023/10/18 10:26:52;;;;;;;4.57;3.65;;;;;;;15.68;45.18;96265.66;4930693;28;20697;-81
2023/10/18 10:31:58;;;;;;;5.75;4.85;;;;;;;15.57;45.47;96269.59;4946431;28;20203;-79
2023/10/18 10:34:32;;;;;;;5.07;4.05;;;;;;;15.68;45.46;96265.66;4915073;28;20246;-80
2023/10/18 10:37:11;;;;;;;5.78;4.50;;;;;;;15.71;45.77;96263.22;4909685;28;20247;-80
2023/10/18 10:39:49;;;;;;;6.25;5.45;;;;;;;15.67;45.13;96261.47;4946624;28;20181;-81
2023/10/18 10:42:41;;;;;;;6.30;4.47;;;;;;;15.44;45.46;96244.94;4903153;28;20370;-78
2023/10/18 10:45:30;;;;;;;6.75;5.03;;;;;;;15.49;46.37;96252.69;4936045;28;20619;-81
2023/10/18 10:47:57;;;;;;;5.95;5.10;;;;;;;15.41;45.29;96243.72;4933911;28;20281;-80
2023/10/18 10:50:37;;;;;;;8.95;5.70;;;;;;;15.38;45.41;96235.66;4917946;28;20192;-82
2023/10/18 10:53:05;;;;;;;8.73;5.28;;;;;;;15.26;46.08;96233.56;4947827;28;20200;-81
2023/10/18 10:55:32;;;;;;;6.38;4.38;;;;;;;15.29;46.16;96239.00;4932845;28;20687;-82
2023/10/18 10:58:15;;;;;;;6.82;4.40;;;;;;;15.38;46.01;96236.44;4947064;28;20211;-82
2023/10/18 11:00:59;;;;;;;6.57;5.13;;;;;;;15.34;46.10;96231.00;4948249;28;20218;-80
2023/10/18 11:03:29;;;;;;;6.20;5.07;;;;;;;15.28;46.42;96221.69;4926707;28;20169;-81
2023/10/18 11:05:58;;;;;;;6.00;4.72;;;;;;;15.23;46.71;96219.19;4932433;28;20624;-83
2023/10/18 11:08:25;;;;;;;5.88;4.60;;;;;;;15.26;46.71;96215.97;4930752;28;20270;-81
2023/10/18 11:10:50;;;;;;;4.93;4.25;;;;;;;15.24;46.51;96206.88;4914784;28;20634;-82
2023/10/18 11:13:22;;;;;;;6.35;4.28;;;;;;;15.26;45.88;96197.63;4945822;28;20184;-79
2023/10/18 11:15:54;;;;;;;4.63;3.42;;;;;;;15.30;46.21;96182.06;4931647;28;20257;-81
2023/10/18 11:18:28;;;;;;;4.90;4.40;;;;;;;15.29;46.70;96196.25;4925453;28;20188;-81
2023/10/18 11:21:05;;;;;;;5.80;3.75;;;;;;;15.25;46.71;96176.94;4918594;28;20173;-81
2023/10/18 11:23:33;;;;;;;5.38;4.10;;;;;;;15.23;46.57;96187.72;4938295;28;20295;-80
2023/10/18 11:26:08;;;;;;;5.22;3.88;;;;;;;15.41;46.41;96182.59;4946414;28;20210;-80
2023/10/18 11:28:37;;;;;;;4.70;3.90;;;;;;;15.52;46.67;96174.19;4929229;28;20217;-80
2023/10/18 11:31:04;;;;;;;6.20;3.92;;;;;;;15.51;45.67;96162.13;4913892;28;20530;-81
2023/10/18 11:36:21;;;;;;;4.85;3.85;;;;;;;15.60;45.57;96156.16;4938274;28;20239;-81
2023/10/18 11:41:36;;;;;;;6.57;4.38;;;;;;;16.01;45.22;96148.03;4927510;28;20366;-80
2023/10/18 11:44:07;;;;;;;7.68;4.85;;;;;;;15.94;45.14;96125.91;4945608;28;20164;-81
2023/10/18 11:46:58;;;;;;;6.15;4.72;;;;;;;15.99;45.40;96136.25;4946920;28;20114;-80
2023/10/18 11:49:36;;;;;;;6.90;4.30;;;;;;;15.97;45.17;96126.09;4911596;28;20212;-80
2023/10/18 11:52:02;;;;;;;5.38;4.28;;;;;;;16.05;44.94;96121.94;4943269;28;20682;-80
2023/10/18 11:54:34;;;;;;;5.03;4.13;;;;;;;15.95;44.38;96122.97;4929148;28;20200;-81
2023/10/18 11:57:01;;;;;;;5.82;4.18;;;;;;;16.00;44.50;96119.44;4927940;28;20223;-80
2023/10/18 11:59:28;;;;;;;5.40;4.30;;;;;;;16.12;44.77;96117.00;4911507;28;20673;-80
2023/10/18 12:01:58;;;;;;;4.18;3.42;;;;;;;16.17;44.14;96106.34;4912331;28;20650;-81
2023/10/18 12:04:37;;;;;;;5.72;3.88;;;;;;;16.17;44.62;96105.59;4946223;28;20208;-82
2023/10/18 12:07:03;;;;;;;4.75;3.83;;;;;;;16.13;44.10;96112.53;4926127;28;20294;-79
2023/10/18 12:09:30;;;;;;;4.75;3.38;;;;;;;16.10;44.22;96113.91;4907659;28;20165;-83
2023/10/18 12:11:56;;;;;;;5.82;3.28;;;;;;;16.27;44.25;96134.19;4928003;28;20188;-83
2023/10/18 12:14:22;;;;;;;6.45;4.38;;;;;;;16.29;44.14;96132.00;4914312;28;20261;-83
2023/10/18 12:16:50;;;;;;;5.20;3.42;;;;;;;16.32;44.66;96138.53;4925169;28;20283;-84
2023/10/18 12:19:16;;;;;;;4.38;3.15;;;;;;;16.32;45.34;96136.66;4946163;28;20384;-81
2023/10/18 12:21:48;;;;;;;6.05;3.60;;;;;;;16.34;44.76;96139.75;4930518;28;20332;-82
2023/10/18 12:24:21;;;;;;;4.35;3.50;;;;;;;16.46;45.13;96139.16;4903758;28;20212;-81
2023/10/18 12:26:53;;;;;;;3.70;3.35;;;;;;;16.48;44.51;96134.34;4912817;28;20590;-82
2023/10/18 12:29:26;;;;;;;3.90;3.55;;;;;;;16.53;44.91;96136.84;4914691;28;20935;-81
2023/10/18 12:31:57;;;;;;;5.03;3.72;;;;;;;16.53;43.85;96123.69;4931303;28;20200;-80
2023/10/18 12:34:28;;;;;;;4.18;3.00;;;;;;;16.56;44.84;96123.09;4945924;28;20166;-80
2023/10/18 12:36:56;;;;;;;6.07;3.53;;;;;;;16.48;44.46;96108.09;4911209;28;20247;-82